createdAt,value
2019-05-25T01:18:35.902Z,15.00
2019-05-25T02:00:02.167Z,14.80
2019-05-25T02:06:15.375Z,14.80
2019-05-25T02:08:43.955Z,14.80
2019-05-25T02:11:12.579Z,14.80
2019-05-25T02:13:41.861Z,14.70
2019-05-25T02:16:10.481Z,14.70
2019-05-25T02:18:41.234Z,14.60
2019-05-25T02:21:10.917Z,14.50
2019-05-25T02:23:41.718Z,14.50
2019-05-25T02:26:10.530Z,14.40
2019-05-25T02:28:45.223Z,14.50
2019-05-25T02:31:13.813Z,14.40
2019-05-25T02:33:44.230Z,14.40
2019-05-25T02:36:12.871Z,14.40
2019-05-25T02:38:47.893Z,14.30
2019-05-25T02:41:19.331Z,14.30
2019-05-25T02:43:47.969Z,14.30
2019-05-25T02:46:16.676Z,14.40
2019-05-25T02:48:45.447Z,14.40
2019-05-25T02:51:14.097Z,14.40
2019-05-25T02:53:42.707Z,14.50
2019-05-25T02:56:11.415Z,14.50
2019-05-25T02:58:40.147Z,14.60
2019-05-25T03:01:08.816Z,14.60
2019-05-25T03:03:37.611Z,14.60
2019-05-25T03:06:06.980Z,14.60
2019-05-25T03:08:36.315Z,14.60
2019-05-25T03:11:04.969Z,14.60
2019-05-25T03:13:33.558Z,14.50
2019-05-25T03:16:02.193Z,14.60
2019-05-25T03:18:30.923Z,14.50
2019-05-25T03:20:59.559Z,14.50
2019-05-25T03:23:30.299Z,14.60
2019-05-25T03:25:59.797Z,14.60
2019-05-25T03:28:33.215Z,14.70
2019-05-25T03:31:11.495Z,14.70
2019-05-25T03:33:40.190Z,14.70
2019-05-25T03:36:14.785Z,14.70
2019-05-25T03:38:43.424Z,14.70
2019-05-25T03:41:15.271Z,14.70
2019-05-25T03:43:45.963Z,14.70
2019-05-25T03:46:14.705Z,14.60
2019-05-25T03:48:47.295Z,14.60
2019-05-25T03:51:17.280Z,14.70
2019-05-25T03:53:45.873Z,14.70
2019-05-25T03:56:14.569Z,14.60
2019-05-25T03:58:43.231Z,14.60
2019-05-25T04:01:18.193Z,14.50
2019-05-25T04:03:47.037Z,14.50
2019-05-25T04:06:21.582Z,14.50
2019-05-25T04:08:58.843Z,14.40
2019-05-25T04:11:27.471Z,14.30
2019-05-25T04:13:58.791Z,14.20
2019-05-25T04:16:28.414Z,14.10
2019-05-25T04:18:58.193Z,14.00
2019-05-25T04:21:27.054Z,14.00
2019-05-25T04:23:55.757Z,14.00
2019-05-25T04:26:27.429Z,13.90
2019-05-25T04:28:54.929Z,14.00
2019-05-25T04:31:23.869Z,14.00
2019-05-25T04:33:52.619Z,14.00
2019-05-25T04:36:24.053Z,14.00
2019-05-25T04:38:58.580Z,14.10
2019-05-25T04:41:29.944Z,14.10
2019-05-25T04:43:59.591Z,14.10
2019-05-25T04:46:30.307Z,14.20
2019-05-25T04:55:34.648Z,14.10
2019-05-25T05:05:02.993Z,13.90
2019-05-25T05:07:48.244Z,13.90
2019-05-25T05:10:22.791Z,14.00
2019-05-25T05:13:03.553Z,14.00
2019-05-25T05:24:51.816Z,14.20
2019-05-25T05:30:54.627Z,14.30
2019-05-25T05:33:38.092Z,14.30
2019-05-25T05:36:58.456Z,14.40
2019-05-25T07:07:24.666Z,15.20
2019-05-25T07:10:17.656Z,15.20
2019-05-25T07:12:57.364Z,15.20
2019-05-25T07:16:11.488Z,15.30
2019-05-25T07:21:15.635Z,15.40
2019-05-25T07:23:58.339Z,15.50
2019-05-25T07:26:32.401Z,15.30
2019-05-25T07:29:09.722Z,15.20
2019-05-25T08:09:17.651Z,16.40
2019-05-25T10:48:32.655Z,17.20
2019-05-25T13:49:54.280Z,18.20
2019-05-25T13:52:23.765Z,18.30
2019-05-25T14:12:33.533Z,19.20
2019-05-25T15:57:12.037Z,16.90
2019-05-25T16:00:31.367Z,16.90
2019-05-25T16:02:37.141Z,16.80
2019-05-25T16:05:12.939Z,16.80
2019-05-25T16:11:11.537Z,16.70
2019-05-25T16:14:09.741Z,16.60
2019-05-25T16:45:49.239Z,16.30
2019-05-25T16:48:25.747Z,16.20
2019-05-25T16:51:06.145Z,16.20
2019-05-25T16:53:37.572Z,16.20
2019-05-25T16:56:07.397Z,16.10
2019-05-25T16:58:37.747Z,16.20
2019-05-25T17:01:17.574Z,16.20
2019-05-25T17:04:41.627Z,16.10
2019-05-25T20:06:50.935Z,14.60
2019-05-25T20:08:59.626Z,14.60
2019-05-25T20:11:39.830Z,14.70
2019-05-25T21:45:04.207Z,13.60
